Time;durP1;ratioP1;P1;durP2;ratioP2;P2;SDS_P1;SDS_P2;PMS_P1;PMS_P2;Temp;Humidity;BMP_temperature;BMP_pressure;BME280_temperature;BME280_humidity;BME280_pressure;Samples;Min_cycle;Max_cycle;Signal;HPM_P1;HPM_P2
2022/10/08 00:02:42;;;;;;;10.23;2.45;;;13.60;99.90;;;;;;6047684;29;20277;-66
2022/10/08 00:05:56;;;;;;;9.10;2.15;;;13.60;99.90;;;;;;6047131;29;20293;-66
2022/10/08 00:09:03;;;;;;;4.85;2.17;;;13.60;99.90;;;;;;6046944;29;20516;-65
2022/10/08 00:12:09;;;;;;;4.95;2.22;;;13.70;99.90;;;;;;6033604;29;20272;-66
2022/10/08 00:15:14;;;;;;;6.40;2.42;;;13.70;99.90;;;;;;6023502;29;20302;-66
2022/10/08 00:18:21;;;;;;;4.15;2.15;;;13.80;99.90;;;;;;6024181;29;20318;-66
2022/10/08 00:21:28;;;;;;;4.63;2.10;;;13.80;99.90;;;;;;6024477;29;20277;-66
2022/10/08 00:24:34;;;;;;;4.57;1.80;;;13.70;99.90;;;;;;6023871;29;20298;-66
2022/10/08 00:27:39;;;;;;;8.90;2.20;;;13.70;99.90;;;;;;6024523;29;20275;-66
2022/10/08 00:30:44;;;;;;;6.43;2.30;;;13.60;99.90;;;;;;6023468;29;20307;-66
2022/10/08 00:33:53;;;;;;;7.07;2.30;;;13.70;99.90;;;;;;6023620;29;20492;-66
2022/10/08 00:36:58;;;;;;;9.63;2.50;;;13.60;99.90;;;;;;6024517;29;20279;-66
2022/10/08 00:40:04;;;;;;;6.13;2.03;;;13.70;99.90;;;;;;6023692;29;20307;-66
2022/10/08 00:43:15;;;;;;;4.70;1.75;;;13.60;99.90;;;;;;6023520;29;20298;-65
2022/10/08 00:46:25;;;;;;;9.52;2.00;;;13.70;99.90;;;;;;6024187;29;20579;-65
2022/10/08 00:49:31;;;;;;;8.93;2.10;;;13.70;99.90;;;;;;6023634;29;20351;-65
2022/10/08 00:52:41;;;;;;;7.13;2.50;;;13.80;99.90;;;;;;6024192;29;20282;-66
2022/10/08 00:55:46;;;;;;;3.95;2.10;;;13.80;99.90;;;;;;6023680;29;20306;-65
2022/10/08 00:58:52;;;;;;;6.10;2.30;;;13.80;99.90;;;;;;6023537;29;20302;-66
2022/10/08 01:01:57;;;;;;;8.60;2.17;;;13.90;99.90;;;;;;6024377;29;20579;-66
2022/10/08 01:05:04;;;;;;;11.73;2.30;;;13.90;99.90;;;;;;6023583;29;20306;-66
2022/10/08 01:08:16;;;;;;;7.65;2.53;;;13.80;99.90;;;;;;6027127;29;20417;-66
2022/10/08 01:11:34;;;;;;;4.40;2.00;;;13.90;99.90;;;;;;6035239;29;20290;-65
2022/10/08 01:14:45;;;;;;;3.15;1.63;;;13.90;99.90;;;;;;6050449;29;20298;-65
2022/10/08 01:18:02;;;;;;;9.00;2.45;;;13.80;99.90;;;;;;6051079;29;20274;-65
2022/10/08 01:21:13;;;;;;;5.82;2.45;;;13.70;99.90;;;;;;6050302;29;20569;-65
2022/10/08 01:25:31;;;;;;;4.18;2.20;;;13.70;99.90;;;;;;6050486;29;20302;-66
2022/10/08 01:27:59;;;;;;;6.38;2.28;;;13.70;99.90;;;;;;6064576;29;20585;-66
2022/10/08 01:31:08;;;;;;;4.63;2.10;;;13.70;99.90;;;;;;6050431;29;20436;-66
2022/10/08 01:34:18;;;;;;;4.80;1.88;;;13.60;99.90;;;;;;6050184;29;20301;-65
2022/10/08 01:37:28;;;;;;;4.70;1.73;;;13.60;99.90;;;;;;6050323;29;20282;-66
2022/10/08 01:40:36;;;;;;;5.85;1.92;;;13.60;99.90;;;;;;6050116;29;20302;-66
2022/10/08 01:43:47;;;;;;;3.17;1.90;;;13.60;99.90;;;;;;6049997;29;20306;-66
2022/10/08 01:46:53;;;;;;;6.68;2.45;;;13.60;99.90;;;;;;6050089;29;20274;-66
2022/10/08 01:50:02;;;;;;;3.78;2.35;;;13.50;99.90;;;;;;6049460;29;20310;-66
2022/10/08 01:53:11;;;;;;;4.00;2.20;;;13.60;99.90;;;;;;6049345;29;20289;-66
2022/10/08 01:56:21;;;;;;;4.82;2.20;;;13.60;99.90;;;;;;6050352;29;20274;-67
2022/10/08 01:59:32;;;;;;;8.50;2.28;;;13.60;99.90;;;;;;6049507;29;20310;-67
2022/10/08 02:02:37;;;;;;;9.18;2.00;;;13.60;99.90;;;;;;6049639;29;20278;-67
2022/10/08 02:05:49;;;;;;;7.32;2.00;;;13.60;99.90;;;;;;6049515;29;20294;-67
2022/10/08 02:08:54;;;;;;;2.30;1.70;;;13.70;99.90;;;;;;6049001;29;20305;-66
2022/10/08 02:11:59;;;;;;;8.50;2.15;;;13.70;99.90;;;;;;6037493;29;20291;-67
2022/10/08 02:15:07;;;;;;;7.47;2.20;;;13.70;99.90;;;;;;6026414;29;20298;-67
2022/10/08 02:18:18;;;;;;;2.10;1.85;;;13.70;99.90;;;;;;6025280;29;20323;-66
2022/10/08 02:21:25;;;;;;;7.63;2.25;;;13.70;99.90;;;;;;6026463;29;20278;-66
2022/10/08 02:24:37;;;;;;;7.47;2.17;;;13.80;99.90;;;;;;6026015;29;20302;-67
2022/10/08 02:27:50;;;;;;;5.07;2.20;;;13.70;99.90;;;;;;6026327;29;20478;-67
2022/10/08 02:31:01;;;;;;;4.57;2.40;;;13.70;99.90;;;;;;6025503;29;20294;-67
2022/10/08 02:34:12;;;;;;;5.10;1.95;;;13.70;99.90;;;;;;6025735;29;20483;-68
2022/10/08 02:37:21;;;;;;;7.93;1.92;;;13.70;99.90;;;;;;6026318;29;20270;-66
2022/10/08 02:40:27;;;;;;;6.00;2.08;;;13.60;99.90;;;;;;6025748;29;20322;-66
2022/10/08 02:43:34;;;;;;;4.07;2.20;;;13.70;99.90;;;;;;6025695;29;20325;-67
2022/10/08 02:46:42;;;;;;;3.38;2.00;;;13.70;99.90;;;;;;6026217;29;20442;-67
2022/10/08 02:49:52;;;;;;;3.05;1.90;;;13.70;99.90;;;;;;6025634;29;20594;-67
2022/10/08 02:52:57;;;;;;;11.10;2.45;;;13.70;99.90;;;;;;6025375;29;20290;-67
2022/10/08 02:56:10;;;;;;;6.40;2.15;;;13.70;99.90;;;;;;6025632;29;20278;-67
2022/10/08 02:59:16;;;;;;;4.10;1.63;;;13.70;99.90;;;;;;6025427;29;20302;-67
2022/10/08 03:02:30;;;;;;;4.18;1.92;;;13.80;99.90;;;;;;6027349;29;20305;-67
2022/10/08 03:05:38;;;;;;;4.97;1.88;;;13.70;99.90;;;;;;6041895;29;20269;-67
2022/10/08 03:08:47;;;;;;;3.45;1.83;;;13.70;99.90;;;;;;6024950;29;20481;-67
2022/10/08 03:11:53;;;;;;;2.88;1.75;;;13.70;99.90;;;;;;6041566;29;20289;-66
2022/10/08 03:14:59;;;;;;;5.85;2.30;;;13.70;99.90;;;;;;6047966;29;20301;-66
2022/10/08 03:18:09;;;;;;;9.15;2.03;;;13.70;99.90;;;;;;6047909;29;20487;-67
2022/10/08 03:21:14;;;;;;;3.65;1.77;;;13.70;99.90;;;;;;6025860;29;20283;-66
2022/10/08 03:24:19;;;;;;;3.40;2.10;;;13.70;99.90;;;;;;6024944;29;20484;-67
2022/10/08 03:27:24;;;;;;;3.63;1.77;;;13.70;99.90;;;;;;6038991;29;20614;-66
2022/10/08 03:30:29;;;;;;;4.97;1.77;;;13.70;99.90;;;;;;6024582;29;20270;-65
2022/10/08 03:33:35;;;;;;;2.85;1.50;;;13.60;99.90;;;;;;6024655;29;20294;-65
2022/10/08 03:36:40;;;;;;;3.30;1.80;;;13.60;99.90;;;;;;6034891;29;20290;-65
2022/10/08 03:39:46;;;;;;;1.80;1.60;;;13.50;99.90;;;;;;6047546;29;20317;-66
2022/10/08 03:42:52;;;;;;;2.20;1.48;;;13.50;99.90;;;;;;6047587;29;20609;-66
2022/10/08 03:45:56;;;;;;;3.42;1.88;;;13.40;99.90;;;;;;6047988;29;20274;-66
2022/10/08 03:49:02;;;;;;;3.13;2.00;;;13.40;99.90;;;;;;6047482;29;20303;-66
2022/10/08 03:52:07;;;;;;;2.15;1.70;;;13.50;99.90;;;;;;6047273;29;20294;-66
2022/10/08 03:55:12;;;;;;;1.75;1.63;;;13.40;99.90;;;;;;6047543;29;20270;-67
2022/10/08 03:58:17;;;;;;;1.63;1.58;;;13.30;99.90;;;;;;6047466;29;20455;-67
2022/10/08 04:01:22;;;;;;;6.20;1.73;;;13.30;99.90;;;;;;6047791;29;20587;-66
2022/10/08 04:04:29;;;;;;;1.70;1.58;;;13.30;99.90;;;;;;6047026;29;20593;-66
2022/10/08 04:07:34;;;;;;;2.53;1.50;;;13.30;99.90;;;;;;6046855;29;20309;-65
2022/10/08 04:10:39;;;;;;;1.98;1.67;;;13.40;99.90;;;;;;6038061;29;20271;-66
2022/10/08 04:13:45;;;;;;;2.70;1.60;;;13.30;99.90;;;;;;6024158;29;20314;-66
2022/10/08 04:16:50;;;;;;;3.47;1.60;;;13.20;99.90;;;;;;6024145;29;20287;-66
2022/10/08 04:19:56;;;;;;;1.65;1.55;;;13.20;99.90;;;;;;6024018;29;20302;-66
2022/10/08 04:23:01;;;;;;;3.42;1.92;;;13.10;99.90;;;;;;6023989;29;20307;-66
2022/10/08 04:26:07;;;;;;;1.50;1.50;;;13.10;99.90;;;;;;6024612;29;20274;-66
2022/10/08 04:29:12;;;;;;;1.92;1.73;;;13.10;99.90;;;;;;6024080;29;20302;-66
2022/10/08 04:32:17;;;;;;;1.30;1.30;;;13.10;99.90;;;;;;6024091;29;20299;-66
2022/10/08 04:35:23;;;;;;;1.15;1.15;;;13.10;99.90;;;;;;6024159;29;20279;-66
2022/10/08 04:38:29;;;;;;;1.48;1.38;;;13.10;99.90;;;;;;6023923;29;20331;-65
2022/10/08 04:41:34;;;;;;;3.40;1.80;;;13.00;99.90;;;;;;6026861;29;20465;-65
2022/10/08 04:44:39;;;;;;;4.32;1.58;;;13.00;99.90;;;;;;6028275;29;20302;-67
2022/10/08 04:47:44;;;;;;;1.40;1.30;;;12.90;99.90;;;;;;6028083;29;20298;-66
2022/10/08 04:50:55;;;;;;;1.60;1.60;;;12.90;99.90;;;;;;6028509;29;20283;-66
2022/10/08 04:54:00;;;;;;;4.63;1.20;;;12.90;99.90;;;;;;6028099;29;20306;-66
2022/10/08 04:57:05;;;;;;;1.30;1.30;;;12.90;99.90;;;;;;6028295;29;20278;-66
2022/10/08 05:00:13;;;;;;;1.88;1.55;;;12.80;99.90;;;;;;6027355;29;20275;-66
2022/10/08 05:03:22;;;;;;;2.92;1.30;;;12.80;99.90;;;;;;6027846;29;20298;-67
2022/10/08 05:06:31;;;;;;;4.47;1.40;;;12.90;99.90;;;;;;6028191;29;20274;-67
2022/10/08 05:09:36;;;;;;;1.75;1.20;;;12.90;99.90;;;;;;6028949;29;20302;-66
2022/10/08 05:12:41;;;;;;;1.55;1.45;;;12.90;99.90;;;;;;6050676;29;20306;-65
2022/10/08 05:15:47;;;;;;;2.95;1.42;;;12.70;99.90;;;;;;6050930;29;20282;-68
2022/10/08 05:18:52;;;;;;;1.98;1.42;;;12.80;99.90;;;;;;6050509;29;20302;-66
2022/10/08 05:21:59;;;;;;;2.55;1.35;;;12.80;99.90;;;;;;6050592;29;20505;-66
2022/10/08 05:25:04;;;;;;;1.50;1.20;;;12.80;99.90;;;;;;6049928;29;20277;-66
2022/10/08 05:28:10;;;;;;;1.27;1.20;;;12.80;99.90;;;;;;6050477;29;20605;-66
2022/10/08 05:31:16;;;;;;;1.73;1.60;;;12.90;99.90;;;;;;6050916;29;20278;-66
2022/10/08 05:34:21;;;;;;;1.25;1.23;;;12.80;99.90;;;;;;6050129;29;20305;-66
2022/10/08 05:37:27;;;;;;;1.42;1.35;;;12.80;99.90;;;;;;6050079;29;20298;-66
2022/10/08 05:40:32;;;;;;;1.13;1.13;;;12.80;99.90;;;;;;6050297;29;20278;-66
2022/10/08 05:43:39;;;;;;;1.23;1.23;;;12.80;99.90;;;;;;6050035;29;20302;-66
2022/10/08 05:46:44;;;;;;;1.30;1.30;;;12.80;99.90;;;;;;6050606;29;20274;-66
2022/10/08 05:49:49;;;;;;;1.30;1.20;;;12.80;99.90;;;;;;6050032;29;20297;-65
2022/10/08 05:52:55;;;;;;;2.40;1.40;;;12.80;99.90;;;;;;6049213;29;20613;-66
2022/10/08 05:56:01;;;;;;;1.55;1.30;;;12.80;99.90;;;;;;6049914;29;20578;-66
2022/10/08 05:59:06;;;;;;;1.95;1.40;;;12.80;99.90;;;;;;6049783;29;20301;-66
2022/10/08 06:02:12;;;;;;;1.30;1.20;;;12.80;99.90;;;;;;6049353;29;20270;-67
2022/10/08 06:05:17;;;;;;;1.23;1.20;;;12.80;99.90;;;;;;6049759;29;20277;-66
2022/10/08 06:08:23;;;;;;;1.23;1.23;;;12.80;99.90;;;;;;6049259;29;20301;-66
2022/10/08 06:11:31;;;;;;;1.10;1.10;;;12.70;99.90;;;;;;6034252;29;20555;-66
2022/10/08 06:14:36;;;;;;;1.60;1.50;;;12.70;99.90;;;;;;6026434;29;20302;-67
2022/10/08 06:17:41;;;;;;;1.48;1.30;;;12.80;99.90;;;;;;6026277;29;20298;-66
2022/10/08 06:20:46;;;;;;;2.85;1.17;;;12.90;99.90;;;;;;6026820;29;20270;-67
2022/10/08 06:23:54;;;;;;;1.33;1.23;;;12.80;99.90;;;;;;6026237;29;20302;-67
2022/10/08 06:26:59;;;;;;;2.05;1.73;;;12.80;99.90;;;;;;6026416;29;20547;-68
2022/10/08 06:30:05;;;;;;;1.40;1.30;;;12.80;99.90;;;;;;6026716;29;20294;-67
2022/10/08 06:33:17;;;;;;;1.25;1.25;;;12.70;99.90;;;;;;6025861;29;20312;-67
2022/10/08 06:36:25;;;;;;;1.00;1.00;;;12.70;99.90;;;;;;6026144;29;20279;-67
2022/10/08 06:39:31;;;;;;;1.40;1.30;;;12.70;99.90;;;;;;6025691;29;20302;-65
2022/10/08 06:42:36;;;;;;;1.40;1.30;;;12.70;99.90;;;;;;6025980;29;20293;-65
2022/10/08 06:45:42;;;;;;;1.98;1.23;;;12.80;99.90;;;;;;6026374;29;20466;-67
2022/10/08 06:48:48;;;;;;;1.85;1.27;;;12.70;99.90;;;;;;6025804;29;20302;-65
2022/10/08 06:51:52;;;;;;;1.05;1.05;;;12.70;99.90;;;;;;6026273;29;20275;-66
2022/10/08 06:54:59;;;;;;;1.70;1.20;;;12.70;99.90;;;;;;6025509;29;20306;-66
2022/10/08 06:58:05;;;;;;;1.45;1.35;;;12.70;99.90;;;;;;6025105;29;20298;-67
2022/10/08 07:01:14;;;;;;;2.03;1.40;;;12.80;99.90;;;;;;6025854;29;20274;-66
2022/10/08 07:04:20;;;;;;;1.77;1.50;;;12.90;99.90;;;;;;6024884;29;20597;-65
2022/10/08 07:07:25;;;;;;;1.48;1.25;;;12.90;99.90;;;;;;6024938;29;20311;-65
2022/10/08 07:10:33;;;;;;;1.17;1.17;;;12.90;99.90;;;;;;6033135;29;20286;-65
2022/10/08 07:13:38;;;;;;;2.05;1.33;;;12.90;99.90;;;;;;6047780;29;20485;-65
2022/10/08 07:16:43;;;;;;;2.10;1.08;;;13.00;99.90;;;;;;6048478;29;20570;-66
2022/10/08 07:19:48;;;;;;;1.58;1.33;;;12.90;99.90;;;;;;6047955;29;20302;-66
2022/10/08 07:22:53;;;;;;;1.70;1.40;;;12.90;99.90;;;;;;6047778;29;20306;-66
2022/10/08 07:26:02;;;;;;;1.65;1.30;;;12.90;99.90;;;;;;6048423;29;20282;-66
2022/10/08 07:29:11;;;;;;;3.50;1.20;;;12.90;99.90;;;;;;6047764;29;20297;-66
2022/10/08 07:32:16;;;;;;;1.42;1.17;;;13.00;99.90;;;;;;6047747;29;20278;-67
2022/10/08 07:35:21;;;;;;;3.83;1.20;;;12.90;99.90;;;;;;6047862;29;20290;-66
2022/10/08 07:38:26;;;;;;;6.05;1.48;;;13.00;99.90;;;;;;6047458;29;20478;-67
2022/10/08 07:41:33;;;;;;;4.45;1.20;;;12.90;99.90;;;;;;6048018;29;20306;-66
2022/10/08 07:44:38;;;;;;;2.10;1.40;;;12.90;99.90;;;;;;6047527;29;20301;-66
2022/10/08 07:47:43;;;;;;;3.00;1.33;;;12.90;99.90;;;;;;6047367;29;20609;-67
2022/10/08 07:50:48;;;;;;;2.78;1.55;;;13.00;99.90;;;;;;6047911;29;20278;-67
2022/10/08 07:53:53;;;;;;;6.40;1.48;;;13.00;99.90;;;;;;6047182;29;20301;-66
2022/10/08 07:57:05;;;;;;;3.58;2.05;;;13.00;99.90;;;;;;6047216;29;20282;-67
2022/10/08 08:00:12;;;;;;;4.03;1.60;;;13.00;99.90;;;;;;6047411;29;20269;-66
2022/10/08 08:03:18;;;;;;;7.72;1.63;;;13.00;99.90;;;;;;6047171;29;20294;-66
2022/10/08 08:06:24;;;;;;;4.20;1.45;;;13.00;99.90;;;;;;6047702;29;20273;-65
2022/10/08 08:09:29;;;;;;;7.20;1.50;;;13.00;99.90;;;;;;6046983;29;20602;-67
2022/10/08 08:12:35;;;;;;;5.78;1.52;;;13.00;99.90;;;;;;6024306;29;20298;-66
2022/10/08 08:15:40;;;;;;;4.15;1.50;;;13.10;99.90;;;;;;6026857;29;20437;-66
2022/10/08 08:18:47;;;;;;;2.92;1.48;;;13.20;99.90;;;;;;6028796;29;20299;-66
2022/10/08 08:21:52;;;;;;;4.95;1.67;;;13.10;99.90;;;;;;6029302;29;20362;-66
2022/10/08 08:24:57;;;;;;;7.07;1.42;;;13.00;99.90;;;;;;6028434;29;20314;-66
2022/10/08 08:28:03;;;;;;;6.25;1.80;;;13.10;99.90;;;;;;6028751;29;20301;-66
2022/10/08 08:31:10;;;;;;;5.72;1.63;;;13.10;99.90;;;;;;6029140;29;20278;-65
2022/10/08 08:34:17;;;;;;;3.63;1.30;;;13.10;99.90;;;;;;6028321;29;20490;-65
2022/10/08 08:37:22;;;;;;;3.80;1.77;;;13.20;99.90;;;;;;6028549;29;20302;-65
2022/10/08 08:40:28;;;;;;;3.10;1.30;;;13.20;99.90;;;;;;6028901;29;20279;-66
2022/10/08 08:43:34;;;;;;;3.72;1.27;;;13.20;99.90;;;;;;6028220;29;20306;-66
2022/10/08 08:46:42;;;;;;;7.95;1.67;;;13.10;99.90;;;;;;6028849;29;20476;-65
2022/10/08 08:49:50;;;;;;;2.40;1.42;;;13.10;99.90;;;;;;6027738;29;20302;-66
2022/10/08 08:52:55;;;;;;;3.42;1.30;;;13.10;99.90;;;;;;6028251;29;20302;-67
2022/10/08 08:56:04;;;;;;;5.65;1.55;;;13.00;99.90;;;;;;6028279;29;20295;-66
2022/10/08 08:59:26;;;;;;;4.60;1.48;;;13.10;99.90;;;;;;6028027;29;20421;-66
2022/10/08 09:02:35;;;;;;;6.18;1.30;;;13.20;99.90;;;;;;6027422;29;20567;-65
2022/10/08 09:05:43;;;;;;;6.70;1.70;;;13.30;99.90;;;;;;6027945;29;20282;-66
2022/10/08 09:08:51;;;;;;;3.40;1.30;;;13.20;99.90;;;;;;6027123;29;20308;-66
2022/10/08 09:11:56;;;;;;;4.88;1.52;;;13.20;99.90;;;;;;6046958;29;20269;-67
2022/10/08 09:15:05;;;;;;;7.28;1.88;;;13.20;99.90;;;;;;6050078;29;20294;-67
2022/10/08 09:18:16;;;;;;;16.50;2.45;;;13.10;99.90;;;;;;6050202;29;20301;-67
2022/10/08 09:21:21;;;;;;;4.95;1.52;;;13.10;99.90;;;;;;6050640;29;20278;-67
2022/10/08 09:24:28;;;;;;;3.97;1.58;;;13.20;99.90;;;;;;6050497;29;20326;-66
2022/10/08 09:27:45;;;;;;;4.45;1.50;;;13.20;99.90;;;;;;6049553;29;20306;-66
2022/10/08 09:30:51;;;;;;;4.03;1.58;;;13.10;99.90;;;;;;6050754;29;20460;-67
2022/10/08 09:34:06;;;;;;;6.80;1.55;;;13.10;99.90;;;;;;6050299;29;20298;-66
2022/10/08 09:37:21;;;;;;;7.63;1.60;;;13.20;99.90;;;;;;6050113;29;20389;-67
2022/10/08 09:40:27;;;;;;;3.15;1.20;;;13.10;99.90;;;;;;6050562;29;20277;-65
2022/10/08 09:43:33;;;;;;;4.32;1.48;;;13.10;99.90;;;;;;6050123;29;20301;-67
2022/10/08 09:46:40;;;;;;;5.50;1.42;;;13.20;99.90;;;;;;6050321;29;20281;-67
2022/10/08 09:49:48;;;;;;;3.80;1.58;;;13.20;99.90;;;;;;6049881;29;20321;-67
2022/10/08 09:52:56;;;;;;;3.97;1.50;;;13.20;99.90;;;;;;6049513;29;20302;-67
2022/10/08 09:56:02;;;;;;;6.80;1.48;;;13.20;99.90;;;;;;6050158;29;20297;-66
2022/10/08 09:59:07;;;;;;;4.57;1.75;;;13.20;99.90;;;;;;6049659;29;20305;-68
2022/10/08 10:02:29;;;;;;;5.47;1.65;;;13.20;99.90;;;;;;6049529;29;20578;-66
2022/10/08 10:05:36;;;;;;;4.07;1.95;;;13.10;99.90;;;;;;6049880;29;20273;-67
2022/10/08 10:08:50;;;;;;;3.42;1.60;;;13.20;99.90;;;;;;6047592;29;20314;-66
2022/10/08 10:12:00;;;;;;;4.07;1.63;;;13.20;99.90;;;;;;6031014;29;20286;-66
2022/10/08 10:15:11;;;;;;;6.53;1.52;;;13.30;99.90;;;;;;6025936;29;20574;-66
2022/10/08 10:18:21;;;;;;;3.47;1.73;;;13.20;99.90;;;;;;6026377;29;20299;-66
2022/10/08 10:21:34;;;;;;;8.45;1.60;;;13.40;99.90;;;;;;6026786;29;20574;-66
2022/10/08 10:24:48;;;;;;;5.72;1.70;;;13.30;99.90;;;;;;6026164;29;20298;-67
2022/10/08 10:27:57;;;;;;;3.72;1.85;;;13.40;99.90;;;;;;6026123;29;20298;-66
2022/10/08 10:31:05;;;;;;;6.15;2.28;;;13.40;99.90;;;;;;6026069;29;20274;-67
2022/10/08 10:34:16;;;;;;;7.65;1.70;;;13.60;99.90;;;;;;6025702;29;20295;-66
2022/10/08 10:37:30;;;;;;;4.60;1.35;;;13.60;99.90;;;;;;6025121;29;20298;-66
2022/10/08 10:40:42;;;;;;;5.80;1.75;;;13.60;99.90;;;;;;6025729;29;20270;-66
2022/10/08 10:43:49;;;;;;;2.47;1.90;;;13.60;99.90;;;;;;6039693;29;20308;-66
2022/10/08 10:46:57;;;;;;;3.92;1.80;;;13.60;99.90;;;;;;6025805;29;20283;-66
2022/10/08 10:50:04;;;;;;;4.43;1.27;;;13.60;99.90;;;;;;6025288;29;20278;-66
2022/10/08 10:53:19;;;;;;;4.50;2.00;;;13.60;99.90;;;;;;6025596;29;20484;-67
2022/10/08 10:56:26;;;;;;;6.38;1.98;;;13.70;99.90;;;;;;6025213;29;20298;-67
2022/10/08 10:59:43;;;;;;;5.22;1.90;;;13.60;99.90;;;;;;6025248;29;20303;-66
2022/10/08 11:02:53;;;;;;;5.13;1.95;;;13.70;99.90;;;;;;6025307;29;20590;-67
2022/10/08 11:06:27;;;;;;;6.60;1.70;;;13.70;99.90;;;;;;6025848;29;20283;-67
2022/10/08 11:09:41;;;;;;;4.03;1.60;;;13.80;99.90;;;;;;6025728;29;20298;-67
2022/10/08 11:12:56;;;;;;;2.95;1.65;;;13.80;99.90;;;;;;6048098;29;20297;-67
2022/10/08 11:16:16;;;;;;;4.30;1.60;;;13.90;99.90;;;;;;6048495;29;20273;-67
2022/10/08 11:19:36;;;;;;;4.40;1.30;;;13.90;99.90;;;;;;6047819;29;20306;-67
2022/10/08 11:22:48;;;;;;;1.63;1.50;;;13.90;99.90;;;;;;6047457;29;20301;-65
2022/10/08 11:25:57;;;;;;;4.88;1.77;;;14.00;99.90;;;;;;6048351;29;20274;-66
2022/10/08 11:29:28;;;;;;;4.70;1.50;;;14.00;99.90;;;;;;6047614;29;20293;-66
2022/10/08 11:32:34;;;;;;;2.67;1.80;;;14.00;99.90;;;;;;6047621;29;20290;-66
2022/10/08 11:35:46;;;;;;;4.50;1.67;;;14.10;99.90;;;;;;6062115;29;20553;-67
2022/10/08 11:38:58;;;;;;;5.03;1.83;;;14.10;99.90;;;;;;6047361;29;20617;-67
2022/10/08 11:42:13;;;;;;;4.28;1.50;;;14.10;99.90;;;;;;6047129;29;20297;-68
2022/10/08 11:45:36;;;;;;;7.20;1.65;;;14.00;99.90;;;;;;6048058;29;20467;-67
2022/10/08 11:48:41;;;;;;;5.20;1.65;;;14.10;99.90;;;;;;6047262;29;20310;-67
2022/10/08 11:51:46;;;;;;;4.93;1.63;;;14.00;99.90;;;;;;6047275;29;20277;-67
2022/10/08 11:54:53;;;;;;;3.33;1.40;;;14.00;99.90;;;;;;6047164;29;20317;-67
2022/10/08 11:58:01;;;;;;;2.35;1.40;;;14.00;99.90;;;;;;6046771;29;20634;-67
2022/10/08 12:01:14;;;;;;;6.22;1.50;;;13.90;99.90;;;;;;6047254;29;20278;-68
2022/10/08 12:04:22;;;;;;;7.03;1.50;;;13.90;99.90;;;;;;6047172;29;20298;-66
2022/10/08 12:07:31;;;;;;;1.38;1.27;;;13.90;99.90;;;;;;6047197;29;20313;-66
2022/10/08 12:10:38;;;;;;;4.88;2.03;;;13.90;99.90;;;;;;6038780;29;20271;-67
2022/10/08 12:13:43;;;;;;;3.03;1.55;;;13.90;99.90;;;;;;6023957;29;20622;-67
2022/10/08 12:17:10;;;;;;;4.35;1.50;;;13.80;99.90;;;;;;6024558;29;20275;-67
2022/10/08 12:20:20;;;;;;;3.75;1.30;;;13.90;99.90;;;;;;6023768;29;20307;-67
2022/10/08 12:23:39;;;;;;;5.82;1.88;;;13.90;99.90;;;;;;6024090;29;20318;-67
2022/10/08 12:27:31;;;;;;;5.18;1.58;;;13.90;99.90;;;;;;6024577;29;20278;-66
2022/10/08 12:30:49;;;;;;;4.82;1.67;;;13.80;99.90;;;;;;6023176;29;20274;-66
2022/10/08 12:34:14;;;;;;;2.08;1.60;;;13.80;99.90;;;;;;6024325;29;20302;-66
2022/10/08 12:38:06;;;;;;;5.32;2.30;;;13.90;99.90;;;;;;6023933;29;20294;-66
2022/10/08 12:41:19;;;;;;;2.95;1.20;;;14.00;99.90;;;;;;6001948;29;20274;-66
2022/10/08 12:44:41;;;;;;;3.40;2.97;;;14.00;99.90;;;;;;6023752;29;20294;-66
2022/10/08 12:47:53;;;;;;;2.92;1.40;;;14.10;99.90;;;;;;6023798;29;20306;-66
2022/10/08 12:51:10;;;;;;;6.22;1.42;;;14.20;99.90;;;;;;6024259;29;20274;-67
2022/10/08 12:54:19;;;;;;;3.08;1.42;;;14.20;99.90;;;;;;6023635;29;20516;-67
2022/10/08 12:57:29;;;;;;;2.17;1.38;;;14.30;99.90;;;;;;6023234;29;20468;-67
2022/10/08 13:00:35;;;;;;;3.88;1.33;;;14.30;99.90;;;;;;6024075;29;20271;-66
2022/10/08 13:03:42;;;;;;;1.98;1.30;;;14.30;99.40;;;;;;6027528;29;20302;-67
2022/10/08 13:06:48;;;;;;;4.97;1.30;;;14.40;99.10;;;;;;6027725;29;20314;-67
2022/10/08 13:09:55;;;;;;;2.15;1.58;;;14.40;99.50;;;;;;6030944;29;20601;-66
2022/10/08 13:13:02;;;;;;;4.25;1.38;;;14.40;99.60;;;;;;6064945;29;20298;-66
2022/10/08 13:16:10;;;;;;;3.33;1.30;;;14.40;99.60;;;;;;6050584;29;20294;-66
2022/10/08 13:19:19;;;;;;;2.28;1.35;;;14.40;99.20;;;;;;6050570;29;20305;-66
2022/10/08 13:22:25;;;;;;;2.47;1.50;;;14.50;98.90;;;;;;6050403;29;20294;-66
2022/10/08 13:25:37;;;;;;;3.60;1.45;;;14.50;99.40;;;;;;6050848;29;20280;-66
2022/10/08 13:28:41;;;;;;;3.38;1.35;;;14.60;99.20;;;;;;6050195;29;20413;-66
2022/10/08 13:32:15;;;;;;;3.40;1.65;;;14.60;99.00;;;;;;6050349;29;20287;-66
2022/10/08 13:35:24;;;;;;;2.38;1.40;;;14.70;99.00;;;;;;6050330;29;20281;-66
2022/10/08 13:38:32;;;;;;;4.82;1.45;;;14.80;98.80;;;;;;6050125;29;20313;-67
2022/10/08 13:41:36;;;;;;;5.63;1.30;;;15.10;98.60;;;;;;6050701;29;20270;-67
2022/10/08 13:44:42;;;;;;;5.82;1.45;;;15.10;97.60;;;;;;6050130;29;20312;-67
2022/10/08 13:47:48;;;;;;;3.08;1.40;;;15.10;97.90;;;;;;6050091;29;20302;-66
2022/10/08 13:50:56;;;;;;;2.10;1.33;;;15.00;98.30;;;;;;6050420;29;20274;-66
2022/10/08 13:54:01;;;;;;;4.50;1.58;;;14.90;98.10;;;;;;6049449;29;20297;-67
2022/10/08 13:57:06;;;;;;;5.45;1.40;;;14.90;98.90;;;;;;6049815;29;20299;-66
2022/10/08 14:00:14;;;;;;;4.60;1.70;;;14.70;99.10;;;;;;6050035;29;20299;-66
2022/10/08 14:03:19;;;;;;;6.85;1.63;;;14.70;99.10;;;;;;6049684;29;20293;-66
2022/10/08 14:06:26;;;;;;;5.88;1.73;;;14.60;99.20;;;;;;6050277;29;20277;-66
2022/10/08 14:09:31;;;;;;;3.00;1.70;;;14.60;99.10;;;;;;6049055;29;20309;-66
2022/10/08 14:12:35;;;;;;;3.40;1.63;;;14.60;99.40;;;;;;6026428;29;20298;-66
2022/10/08 14:15:41;;;;;;;1.88;1.35;;;14.50;99.00;;;;;;6026851;29;20275;-66
2022/10/08 14:18:46;;;;;;;6.03;2.08;;;14.40;98.80;;;;;;6026324;29;20306;-66
2022/10/08 14:21:55;;;;;;;2.88;1.45;;;14.40;98.90;;;;;;6026910;29;20278;-66
2022/10/08 14:25:00;;;;;;;3.92;1.88;;;14.30;98.80;;;;;;6026325;29;20306;-67
2022/10/08 14:28:05;;;;;;;7.85;1.63;;;14.30;98.80;;;;;;6026223;29;20295;-67
2022/10/08 14:31:12;;;;;;;1.92;1.17;;;14.30;98.90;;;;;;6026347;29;20467;-67
2022/10/08 14:34:17;;;;;;;1.40;1.30;;;14.20;98.80;;;;;;6026024;29;20294;-67
2022/10/08 14:37:23;;;;;;;2.67;1.10;;;14.20;99.60;;;;;;6025843;29;20319;-66
2022/10/08 14:40:29;;;;;;;3.58;1.10;;;14.10;99.20;;;;;;6025765;29;20490;-66
2022/10/08 14:43:34;;;;;;;3.65;1.40;;;14.10;98.90;;;;;;6025540;29;20587;-67
2022/10/08 14:46:39;;;;;;;2.92;1.50;;;14.10;98.60;;;;;;6025860;29;20274;-67
2022/10/08 14:49:43;;;;;;;6.20;1.50;;;14.10;98.50;;;;;;6025750;29;20306;-67
2022/10/08 14:52:50;;;;;;;3.08;1.80;;;14.00;97.90;;;;;;6025379;29;20593;-66
2022/10/08 14:55:55;;;;;;;7.40;1.70;;;14.00;98.50;;;;;;6025518;29;20279;-67
2022/10/08 14:59:17;;;;;;;2.67;1.48;;;14.00;98.70;;;;;;6025419;29;20497;-67
2022/10/08 15:02:22;;;;;;;2.47;1.40;;;13.90;99.60;;;;;;6025325;29;20295;-67
2022/10/08 15:05:27;;;;;;;7.78;2.75;;;13.90;99.10;;;;;;6025795;29;20562;-67
2022/10/08 15:08:34;;;;;;;3.33;1.58;;;13.90;98.60;;;;;;6024997;29;20298;-67
2022/10/08 15:11:39;;;;;;;3.75;1.30;;;14.00;98.10;;;;;;6042010;29;20291;-67
2022/10/08 15:14:43;;;;;;;1.92;1.27;;;13.90;98.70;;;;;;6048212;29;20306;-67
2022/10/08 15:17:48;;;;;;;4.82;1.48;;;13.90;99.10;;;;;;6047907;29;20486;-67
2022/10/08 15:20:55;;;;;;;3.63;1.42;;;13.80;99.30;;;;;;6048037;29;20294;-67
2022/10/08 15:24:01;;;;;;;1.50;1.40;;;13.90;98.50;;;;;;6047456;29;20305;-66
2022/10/08 15:27:06;;;;;;;2.88;1.25;;;13.80;98.80;;;;;;6047564;29;20279;-67
2022/10/08 15:30:13;;;;;;;1.85;1.30;;;13.80;98.80;;;;;;6048402;29;20577;-67
2022/10/08 15:33:18;;;;;;;2.35;1.60;;;13.80;99.20;;;;;;6047842;29;20294;-67
2022/10/08 15:36:25;;;;;;;5.53;1.80;;;13.70;98.90;;;;;;6047841;29;20273;-67
2022/10/08 15:39:31;;;;;;;1.50;1.40;;;13.70;99.80;;;;;;6047225;29;20305;-67
2022/10/08 15:42:39;;;;;;;3.47;1.83;;;13.60;99.20;;;;;;6047686;29;20298;-66
2022/10/08 15:45:44;;;;;;;3.65;1.65;;;13.60;99.90;;;;;;6048067;29;20277;-66
2022/10/08 15:48:52;;;;;;;4.28;1.80;;;13.50;99.90;;;;;;6047240;29;20301;-66
2022/10/08 15:51:57;;;;;;;2.78;1.52;;;13.30;99.90;;;;;;6048044;29;20281;-67
2022/10/08 15:55:04;;;;;;;2.65;1.70;;;13.30;99.90;;;;;;6046673;29;20270;-66
2022/10/08 15:58:13;;;;;;;1.48;1.23;;;13.30;99.90;;;;;;6047323;29;20305;-66
2022/10/08 16:01:38;;;;;;;6.60;1.50;;;13.30;99.90;;;;;;6047403;29;20298;-67
2022/10/08 16:04:43;;;;;;;5.30;1.45;;;13.30;99.90;;;;;;6047394;29;20298;-67
2022/10/08 16:07:48;;;;;;;2.13;1.70;;;13.30;99.90;;;;;;6047470;29;20293;-67
2022/10/08 16:10:55;;;;;;;8.15;1.77;;;13.30;99.90;;;;;;6036699;29;20271;-67
2022/10/08 16:14:05;;;;;;;2.88;1.90;;;13.30;99.90;;;;;;6024220;29;20311;-67
2022/10/08 16:17:10;;;;;;;2.53;1.65;;;13.30;99.90;;;;;;6024246;29;20275;-67
2022/10/08 16:20:15;;;;;;;6.43;1.88;;;13.20;99.90;;;;;;6024601;29;20294;-67